createdAt,value
2022-12-31T00:00:20.079Z,10.07
2022-12-31T00:05:24.192Z,10.67
2022-12-31T00:10:27.621Z,9.67
2022-12-31T00:15:32.532Z,9.80
2022-12-31T00:20:36.508Z,9.20
2022-12-31T00:25:39.931Z,10.00
2022-12-31T00:30:44.737Z,10.60
2022-12-31T00:35:48.133Z,12.47
2022-12-31T00:40:51.633Z,11.73
2022-12-31T00:45:56.595Z,8.73
2022-12-31T00:51:00.714Z,9.30
2022-12-31T00:56:07.036Z,11.17
2022-12-31T01:01:13.115Z,8.17
2022-12-31T01:06:16.817Z,9.63
2022-12-31T01:11:22.734Z,9.60
2022-12-31T01:16:29.638Z,9.77
2022-12-31T01:21:33.953Z,9.93
2022-12-31T01:26:38.195Z,7.77
2022-12-31T01:31:43.094Z,8.93
2022-12-31T01:36:46.649Z,9.57
2022-12-31T01:41:51.030Z,9.90
2022-12-31T01:46:58.370Z,7.97
2022-12-31T01:52:08.880Z,7.23
2022-12-31T01:57:13.186Z,10.03
2022-12-31T02:02:18.576Z,12.83
2022-12-31T02:07:22.649Z,9.47
2022-12-31T02:12:26.102Z,8.50
2022-12-31T02:17:58.303Z,9.53
2022-12-31T02:23:34.617Z,9.20
2022-12-31T02:28:57.909Z,8.87
2022-12-31T02:34:08.946Z,10.60
2022-12-31T02:39:14.097Z,9.17
2022-12-31T02:44:24.369Z,9.67
2022-12-31T02:49:36.664Z,10.23
2022-12-31T02:54:49.804Z,9.67
2022-12-31T03:00:16.541Z,8.60
2022-12-31T03:05:26.419Z,9.23
2022-12-31T03:10:29.952Z,9.93
2022-12-31T03:15:35.251Z,10.63
2022-12-31T03:20:58.910Z,9.70
2022-12-31T03:26:03.001Z,9.73
2022-12-31T03:31:07.223Z,9.40
2022-12-31T03:36:14.709Z,7.90
2022-12-31T03:41:18.119Z,8.90
2022-12-31T03:46:21.580Z,10.10
2022-12-31T03:51:26.483Z,9.27
2022-12-31T03:56:29.954Z,10.23
2022-12-31T04:01:33.495Z,10.30
2022-12-31T04:06:38.382Z,9.13
2022-12-31T04:11:42.120Z,10.70
2022-12-31T04:16:46.048Z,10.10
2022-12-31T04:21:51.288Z,9.30
2022-12-31T04:26:54.738Z,7.70
2022-12-31T04:31:58.123Z,9.00
2022-12-31T04:37:03.510Z,9.13
2022-12-31T04:42:07.040Z,7.87
2022-12-31T04:47:10.733Z,7.97
2022-12-31T04:52:15.883Z,8.00
2022-12-31T04:57:19.294Z,7.30
2022-12-31T05:02:22.795Z,6.97
2022-12-31T05:07:27.745Z,8.97
2022-12-31T05:12:31.195Z,9.23
2022-12-31T05:17:34.606Z,10.17
2022-12-31T05:22:39.443Z,13.77
2022-12-31T05:27:42.977Z,11.87
2022-12-31T05:32:47.416Z,12.27
2022-12-31T05:37:52.506Z,12.60
2022-12-31T05:42:56.254Z,9.30
2022-12-31T05:47:59.757Z,11.83
2022-12-31T05:53:04.599Z,8.87
2022-12-31T05:58:07.980Z,9.73
2022-12-31T06:03:12.031Z,7.80
2022-12-31T06:08:16.977Z,7.63
2022-12-31T06:13:20.374Z,12.40
2022-12-31T06:18:23.864Z,12.83
2022-12-31T06:23:28.762Z,12.00
2022-12-31T06:28:32.233Z,18.23
2022-12-31T06:33:36.592Z,18.03
2022-12-31T06:38:43.269Z,15.10
2022-12-31T06:43:47.193Z,11.53
2022-12-31T06:48:50.666Z,10.27
2022-12-31T06:53:55.498Z,11.43
2022-12-31T06:58:59.462Z,11.33
2022-12-31T07:04:14.154Z,8.47
2022-12-31T07:09:25.387Z,8.13
2022-12-31T07:14:37.552Z,8.10
2022-12-31T07:19:57.123Z,9.53
2022-12-31T07:25:03.635Z,9.43
2022-12-31T07:30:12.698Z,9.00
2022-12-31T07:35:23.189Z,6.37
2022-12-31T07:40:39.628Z,8.53
2022-12-31T07:45:49.536Z,8.43
2022-12-31T07:50:55.400Z,9.63
2022-12-31T07:56:02.152Z,9.97
2022-12-31T08:01:06.692Z,11.70
2022-12-31T08:06:17.321Z,13.43
2022-12-31T08:11:29.844Z,10.53
2022-12-31T08:16:33.880Z,9.93
2022-12-31T08:21:47.620Z,12.77
2022-12-31T08:27:03.254Z,11.93
2022-12-31T08:32:14.467Z,11.13
2022-12-31T08:37:28.763Z,12.27
2022-12-31T08:42:41.399Z,11.67
2022-12-31T08:47:57.983Z,11.00
2022-12-31T08:53:03.783Z,12.20
2022-12-31T08:58:21.680Z,10.30
2022-12-31T09:03:50.594Z,11.83
2022-12-31T09:09:02.733Z,11.30
2022-12-31T09:14:27.001Z,10.10
2022-12-31T09:19:30.452Z,8.73
2022-12-31T09:24:34.818Z,8.70
2022-12-31T09:29:56.743Z,10.13
2022-12-31T09:35:07.563Z,8.27
2022-12-31T09:40:41.860Z,11.00
2022-12-31T09:46:23.409Z,8.00
2022-12-31T09:51:33.848Z,8.70
2022-12-31T09:56:38.458Z,7.77
2022-12-31T10:01:51.854Z,8.87
2022-12-31T10:07:09.567Z,10.57
2022-12-31T10:12:49.186Z,15.70
2022-12-31T10:18:05.228Z,9.77
2022-12-31T10:23:35.109Z,9.70
2022-12-31T10:28:50.351Z,10.00
2022-12-31T10:34:07.508Z,8.80
2022-12-31T10:39:25.243Z,6.93
2022-12-31T10:45:22.096Z,6.93
2022-12-31T10:50:55.366Z,7.07
2022-12-31T10:56:39.822Z,8.67
2022-12-31T11:01:50.055Z,7.97
2022-12-31T11:07:30.658Z,8.70
2022-12-31T11:13:12.866Z,6.70
2022-12-31T11:18:27.196Z,10.33
2022-12-31T11:29:05.712Z,8.40
2022-12-31T14:30:47.185Z,8.70
2022-12-31T14:36:14.195Z,8.57
2022-12-31T14:41:33.297Z,9.97
2022-12-31T14:46:48.904Z,5.87
2022-12-31T14:51:52.633Z,8.30
2022-12-31T14:56:56.109Z,12.30
2022-12-31T15:02:01.044Z,8.30
2022-12-31T15:07:13.185Z,6.83
2022-12-31T15:12:30.453Z,7.97
2022-12-31T15:17:49.489Z,10.33
2022-12-31T15:22:54.403Z,10.37
2022-12-31T15:28:00.325Z,9.60
2022-12-31T15:33:10.122Z,9.03
2022-12-31T15:38:32.805Z,7.87
2022-12-31T15:43:42.667Z,7.50
2022-12-31T15:48:56.552Z,11.07
2022-12-31T15:54:01.486Z,7.80
2022-12-31T15:59:12.643Z,9.00
2022-12-31T16:04:21.196Z,7.13
2022-12-31T16:09:27.257Z,8.37
2022-12-31T16:14:37.230Z,7.97
2022-12-31T16:19:46.259Z,8.13
2022-12-31T16:25:29.043Z,6.10
2022-12-31T16:30:22.534Z,8.10
2022-12-31T16:35:29.897Z,7.00
2022-12-31T16:40:33.338Z,7.53
2022-12-31T16:45:38.792Z,8.60
2022-12-31T16:50:46.711Z,9.73
2022-12-31T16:55:56.465Z,8.03
2022-12-31T17:01:09.048Z,5.67
2022-12-31T17:06:18.226Z,8.70
2022-12-31T17:11:25.799Z,7.83
2022-12-31T17:16:29.429Z,10.23
2022-12-31T17:21:35.068Z,8.80
2022-12-31T17:26:39.993Z,10.73
2022-12-31T17:32:00.123Z,10.23
2022-12-31T17:37:18.474Z,7.27
2022-12-31T17:42:32.096Z,10.33
2022-12-31T17:47:37.855Z,9.57
2022-12-31T17:52:42.708Z,12.43
2022-12-31T17:57:51.921Z,14.77
2022-12-31T18:02:55.475Z,13.33
2022-12-31T18:08:00.685Z,11.23
2022-12-31T18:13:05.965Z,12.40
2022-12-31T18:18:24.468Z,10.53
2022-12-31T18:23:32.572Z,17.97
2022-12-31T18:28:36.261Z,11.57
2022-12-31T18:33:39.634Z,17.83
2022-12-31T18:38:44.747Z,14.27
2022-12-31T18:43:48.947Z,13.77
2022-12-31T18:48:52.588Z,15.37
2022-12-31T18:53:57.833Z,17.13
2022-12-31T18:59:02.645Z,18.27
2022-12-31T19:04:13.690Z,31.30
2022-12-31T19:09:44.114Z,29.20
2022-12-31T19:14:42.270Z,32.83
2022-12-31T19:19:45.695Z,38.70
2022-12-31T19:24:50.488Z,38.60
2022-12-31T19:29:53.863Z,35.83
2022-12-31T19:34:57.474Z,38.27
2022-12-31T19:40:02.424Z,35.77
2022-12-31T19:45:07.923Z,35.33
2022-12-31T19:50:16.693Z,38.23
2022-12-31T19:55:25.143Z,37.13
2022-12-31T20:00:28.598Z,40.00
2022-12-31T20:05:32.061Z,35.40
2022-12-31T20:10:38.004Z,36.57
2022-12-31T20:15:47.799Z,35.47
2022-12-31T20:20:55.768Z,30.80
2022-12-31T20:26:01.688Z,30.10
2022-12-31T20:31:07.148Z,30.10
2022-12-31T20:36:14.182Z,31.27
2022-12-31T20:41:20.633Z,29.63
2022-12-31T20:46:25.975Z,29.77
2022-12-31T20:51:31.287Z,30.40
2022-12-31T20:56:38.533Z,30.47
2022-12-31T21:02:19.353Z,32.37
2022-12-31T21:07:05.795Z,28.00
2022-12-31T21:12:30.110Z,26.33
2022-12-31T21:17:33.884Z,26.77
2022-12-31T21:22:37.624Z,26.33
2022-12-31T21:27:42.450Z,26.30
2022-12-31T21:32:46.265Z,26.33
2022-12-31T21:37:58.119Z,25.37
2022-12-31T21:43:05.194Z,27.83
2022-12-31T21:48:25.168Z,40.37
2022-12-31T21:53:36.302Z,33.33
2022-12-31T21:58:44.009Z,42.73
2022-12-31T22:03:47.960Z,29.33
2022-12-31T22:08:53.262Z,24.13
2022-12-31T22:13:58.750Z,22.90
2022-12-31T22:19:02.215Z,19.80
2022-12-31T22:24:05.900Z,19.53
2022-12-31T22:29:10.796Z,21.93
2022-12-31T22:34:14.445Z,18.77
2022-12-31T22:39:43.875Z,21.10
2022-12-31T22:44:42.765Z,22.00
2022-12-31T22:49:46.687Z,23.73
2022-12-31T22:54:50.165Z,81.47
2022-12-31T22:59:55.066Z,47.80
2022-12-31T23:05:15.931Z,28.97
2022-12-31T23:10:51.790Z,35.67
2022-12-31T23:16:14.188Z,23.57
2022-12-31T23:21:34.848Z,35.17
2022-12-31T23:26:38.277Z,26.47
2022-12-31T23:31:43.176Z,20.43
2022-12-31T23:36:46.647Z,21.43
2022-12-31T23:41:50.081Z,20.57
2022-12-31T23:46:55.349Z,23.10
2022-12-31T23:51:59.284Z,23.90
2022-12-31T23:57:02.699Z,29.90
